Time;durP1;ratioP1;P1;durP2;ratioP2;P2;SDS_P1;SDS_P2;PMS_P1;PMS_P2;Temp;Humidity;BMP_temperature;BMP_pressure;BME280_temperature;BME280_humidity;BME280_pressure;Samples;Min_cycle;Max_cycle;Signal;HPM_P1;HPM_P2
2023/04/05 00:01:14;;;;;;;5.00;2.60;;;;;;;16.40;33.87;100509.78;5091747;28;20549;-77
2023/04/05 00:03:43;;;;;;;5.18;2.60;;;;;;;16.33;33.99;100511.25;5092122;28;20461;-76
2023/04/05 00:06:15;;;;;;;5.90;2.63;;;;;;;16.35;34.12;100506.59;5092219;28;20071;-77
2023/04/05 00:08:49;;;;;;;4.83;2.73;;;;;;;16.30;33.91;100512.34;5092027;28;20331;-76
2023/04/05 00:11:19;;;;;;;5.55;2.80;;;;;;;16.30;33.82;100512.34;5092328;28;20051;-75
2023/04/05 00:13:47;;;;;;;4.63;2.45;;;;;;;16.26;34.00;100510.88;5092493;28;20405;-77
2023/04/05 00:16:15;;;;;;;4.32;2.58;;;;;;;16.24;33.93;100515.53;5095750;28;20048;-76
2023/04/05 00:18:48;;;;;;;4.78;2.60;;;;;;;16.22;33.96;100508.56;5096368;28;20123;-77
2023/04/05 00:21:17;;;;;;;4.93;2.60;;;;;;;16.18;34.00;100499.88;5097059;28;20066;-79
2023/04/05 00:23:45;;;;;;;4.57;2.42;;;;;;;16.14;34.17;100498.41;5097132;28;20074;-74
2023/04/05 00:26:13;;;;;;;4.28;2.40;;;;;;;16.15;34.09;100504.66;5097168;28;20043;-77
2023/04/05 00:28:42;;;;;;;4.07;2.25;;;;;;;16.11;34.02;100497.78;5097009;28;20048;-78
2023/04/05 00:31:11;;;;;;;4.38;2.50;;;;;;;16.07;34.01;100496.31;5096872;28;20077;-77
2023/04/05 00:33:40;;;;;;;4.20;2.53;;;;;;;16.06;34.11;100498.16;5096842;28;20040;-76
2023/04/05 00:36:10;;;;;;;4.28;2.40;;;;;;;16.05;34.06;100498.28;5096522;28;20489;-76
2023/04/05 00:38:39;;;;;;;3.60;2.22;;;;;;;16.00;34.12;100496.78;5096274;28;20105;-77
2023/04/05 00:41:08;;;;;;;4.28;2.35;;;;;;;15.99;34.17;100497.78;5096254;28;20046;-76
2023/04/05 00:43:36;;;;;;;3.95;2.30;;;;;;;15.97;34.06;100499.75;5096177;28;20082;-77
2023/04/05 00:46:06;;;;;;;4.47;2.53;;;;;;;15.95;34.19;100493.63;5096046;28;20447;-77
2023/04/05 00:48:35;;;;;;;4.22;2.30;;;;;;;15.92;34.12;100499.25;5095980;28;20076;-79
2023/04/05 00:51:08;;;;;;;3.97;2.38;;;;;;;15.86;34.00;100488.13;5096442;28;20491;-77
2023/04/05 00:53:37;;;;;;;4.22;2.45;;;;;;;15.85;34.19;100492.63;5096655;28;20051;-78
2023/04/05 00:56:06;;;;;;;4.50;2.35;;;;;;;15.84;34.15;100495.47;5096618;28;20068;-78
2023/04/05 00:58:35;;;;;;;4.10;2.50;;;;;;;15.84;34.25;100500.84;5095881;28;20137;-77
2023/04/05 01:01:12;;;;;;;3.88;2.15;;;;;;;15.81;34.22;100501.91;5095928;28;20048;-78
2023/04/05 01:03:46;;;;;;;3.97;2.10;;;;;;;15.78;34.20;100496.78;5096363;28;20129;-78
2023/04/05 01:06:28;;;;;;;5.25;2.40;;;;;;;15.77;34.27;100500.44;5096276;28;20047;-77
2023/04/05 01:09:06;;;;;;;4.35;2.53;;;;;;;15.73;34.26;100491.78;5095384;28;20119;-77
2023/04/05 01:11:37;;;;;;;4.38;2.33;;;;;;;15.70;34.15;100485.75;5095590;28;20047;-77
2023/04/05 01:14:06;;;;;;;4.00;2.40;;;;;;;15.69;34.15;100489.41;5096141;28;20074;-78
2023/04/05 01:16:36;;;;;;;3.80;2.10;;;;;;;15.68;34.20;100485.88;5097985;28;20048;-78
2023/04/05 01:19:04;;;;;;;4.88;2.42;;;;;;;15.66;34.25;100489.66;5097680;28;20067;-78
2023/04/05 01:21:52;;;;;;;4.85;2.50;;;;;;;15.64;34.23;100494.31;5098659;28;20044;-79
2023/04/05 01:24:38;;;;;;;3.95;2.20;;;;;;;15.61;34.26;100489.16;5097014;28;20523;-78
2023/04/05 01:27:10;;;;;;;4.55;2.10;;;;;;;15.59;34.19;100486.56;5094595;28;20082;-77
2023/04/05 01:30:03;;;;;;;3.95;2.35;;;;;;;15.56;34.31;100480.56;5095646;28;20052;-78
2023/04/05 01:33:07;;;;;;;4.25;2.10;;;;;;;15.53;34.23;100487.03;5095491;28;20087;-77
2023/04/05 01:35:43;;;;;;;3.25;2.13;;;;;;;15.52;34.24;100481.75;5081016;28;20075;-76
2023/04/05 01:38:17;;;;;;;4.10;2.30;;;;;;;15.50;34.24;100486.41;5095006;28;20070;-78
2023/04/05 01:40:47;;;;;;;4.15;2.50;;;;;;;15.49;34.33;100487.38;5094907;28;20050;-76
2023/04/05 01:43:16;;;;;;;4.10;2.50;;;;;;;15.46;34.27;100481.28;5095159;28;20485;-78
2023/04/05 01:45:46;;;;;;;4.13;2.22;;;;;;;15.42;34.27;100485.16;5094948;28;20480;-79
2023/04/05 01:48:15;;;;;;;3.10;2.03;;;;;;;15.42;34.42;100484.31;5095083;28;20074;-78
2023/04/05 01:50:43;;;;;;;4.03;2.22;;;;;;;15.40;34.27;100478.19;5094942;28;20040;-78
2023/04/05 01:53:11;;;;;;;3.60;2.20;;;;;;;15.38;34.43;100481.00;5094882;28;20040;-77
2023/04/05 01:55:46;;;;;;;4.00;2.40;;;;;;;15.37;34.33;100481.97;5094620;28;20127;-78
2023/04/05 01:58:14;;;;;;;4.38;2.30;;;;;;;15.35;34.32;100483.09;5094428;28;20439;-76
2023/04/05 02:00:45;;;;;;;3.42;2.10;;;;;;;15.33;34.29;100483.16;5094491;28;20070;-76
2023/04/05 02:03:14;;;;;;;4.00;2.30;;;;;;;15.30;34.37;100474.50;5094660;28;20067;-76
2023/04/05 02:05:43;;;;;;;3.78;2.22;;;;;;;15.29;34.22;100476.34;5094629;28;20139;-79
2023/04/05 02:08:12;;;;;;;3.88;2.30;;;;;;;15.27;34.37;100480.97;5095445;28;20123;-76
2023/04/05 02:10:41;;;;;;;4.25;2.30;;;;;;;15.25;34.39;100482.03;5094769;28;20067;-78
2023/04/05 02:13:10;;;;;;;4.15;2.30;;;;;;;15.25;34.32;100480.25;5094380;28;21201;-77
2023/04/05 02:15:38;;;;;;;4.45;2.40;;;;;;;15.22;34.33;100477.75;5094067;28;20079;-79
2023/04/05 02:18:06;;;;;;;4.13;2.30;;;;;;;15.20;34.34;100479.72;5094220;28;20056;-77
2023/04/05 02:20:36;;;;;;;4.53;2.38;;;;;;;15.18;34.35;100481.66;5094235;28;20405;-79
2023/04/05 02:23:04;;;;;;;4.00;2.30;;;;;;;15.16;34.37;100479.09;5093770;28;20551;-78
2023/04/05 02:25:32;;;;;;;3.83;2.20;;;;;;;15.15;34.21;100484.56;5096147;28;20056;-78
2023/04/05 02:28:04;;;;;;;3.80;2.30;;;;;;;15.14;34.59;100477.47;5096559;28;20724;-78
2023/04/05 02:30:33;;;;;;;3.78;2.05;;;;;;;15.12;34.41;100479.44;5094579;28;20072;-78
2023/04/05 02:33:01;;;;;;;3.70;2.03;;;;;;;15.10;34.42;100478.69;5095341;28;20044;-77
2023/04/05 02:35:30;;;;;;;3.80;2.10;;;;;;;15.08;34.39;100475.28;5094037;28;20078;-78
2023/04/05 02:38:00;;;;;;;3.72;2.30;;;;;;;15.05;34.50;100470.13;5093013;28;20043;-78
2023/04/05 02:40:28;;;;;;;4.28;2.10;;;;;;;15.05;34.39;100475.50;5104384;28;20043;-79
2023/04/05 02:42:57;;;;;;;3.92;2.22;;;;;;;15.03;34.48;100477.44;5114245;28;20055;-77
2023/04/05 02:45:26;;;;;;;4.63;2.30;;;;;;;14.99;34.51;100474.13;5111335;28;20050;-78
2023/04/05 02:47:55;;;;;;;4.97;2.58;;;;;;;14.99;34.48;100473.28;5093726;28;20067;-77
2023/04/05 02:50:23;;;;;;;3.50;2.15;;;;;;;14.98;34.45;100474.25;5093523;28;20121;-76
2023/04/05 02:52:51;;;;;;;4.32;2.50;;;;;;;14.95;34.60;100467.25;5093188;28;20064;-77
2023/04/05 02:55:21;;;;;;;4.50;2.50;;;;;;;14.93;34.48;100469.22;5093426;28;20086;-77
2023/04/05 02:57:49;;;;;;;5.63;2.28;;;;;;;14.92;34.53;100470.19;5113648;28;20085;-76
2023/04/05 03:00:18;;;;;;;5.30;2.40;;;;;;;14.92;34.44;100466.66;5113829;28;20736;-77
2023/04/05 03:02:46;;;;;;;4.47;2.40;;;;;;;14.87;34.44;100462.50;5113435;28;20055;-77
2023/04/05 03:05:17;;;;;;;4.22;2.13;;;;;;;14.87;34.42;100470.53;5113044;28;20054;-77
2023/04/05 03:07:45;;;;;;;4.22;2.30;;;;;;;14.85;34.37;100469.78;5113296;28;20141;-75
2023/04/05 03:10:17;;;;;;;4.53;2.10;;;;;;;14.82;34.58;100470.00;5113446;28;20040;-74
2023/04/05 03:12:47;;;;;;;4.10;2.40;;;;;;;14.82;34.50;100470.00;5113289;28;20051;-76
2023/04/05 03:15:15;;;;;;;4.15;2.17;;;;;;;14.80;34.45;100471.09;5113179;28;20074;-75
2023/04/05 03:17:44;;;;;;;3.90;2.35;;;;;;;14.79;34.46;100481.00;5113222;28;20054;-78
2023/04/05 03:20:13;;;;;;;3.80;2.25;;;;;;;14.77;34.65;100472.19;5100864;28;20048;-76
2023/04/05 03:22:41;;;;;;;4.43;2.70;;;;;;;14.76;34.42;100483.88;5092879;28;20070;-74
2023/04/05 03:25:10;;;;;;;7.80;3.65;;;;;;;14.74;34.51;100476.91;5092898;28;20052;-77
2023/04/05 03:27:38;;;;;;;7.03;3.65;;;;;;;14.73;34.47;100484.13;5092678;28;20496;-77
2023/04/05 03:30:09;;;;;;;6.60;3.45;;;;;;;14.71;34.51;100483.38;5092544;28;20043;-76
2023/04/05 03:32:38;;;;;;;7.15;3.60;;;;;;;14.68;34.43;100477.41;5092685;28;20059;-78
2023/04/05 03:35:06;;;;;;;5.53;3.03;;;;;;;14.68;34.45;100483.63;5092530;28;20047;-75
2023/04/05 03:37:35;;;;;;;8.25;3.55;;;;;;;14.67;34.31;100481.03;5109537;28;20047;-74
2023/04/05 03:40:08;;;;;;;6.47;3.20;;;;;;;14.66;34.47;100482.00;5112985;28;20043;-76
2023/04/05 03:42:43;;;;;;;6.25;3.13;;;;;;;14.62;34.38;100481.38;5113016;28;20438;-76
2023/04/05 03:45:13;;;;;;;6.18;3.03;;;;;;;14.62;34.52;100489.44;5112737;28;20093;-76
2023/04/05 03:47:46;;;;;;;6.03;3.13;;;;;;;14.60;34.46;100488.69;5112168;28;20054;-74
2023/04/05 03:50:17;;;;;;;5.97;3.00;;;;;;;14.56;34.43;100485.34;5111550;28;20044;-75
2023/04/05 03:52:45;;;;;;;5.82;3.20;;;;;;;14.56;34.54;100484.50;5094197;28;20043;-75
2023/04/05 03:55:16;;;;;;;4.93;2.88;;;;;;;14.55;34.48;100488.16;5112195;28;20511;-74
2023/04/05 03:57:45;;;;;;;5.97;3.03;;;;;;;14.54;34.53;100491.81;5112189;28;20126;-75
2023/04/05 04:00:16;;;;;;;6.82;3.20;;;;;;;14.52;34.52;100499.97;5112322;28;20559;-76
2023/04/05 04:02:46;;;;;;;6.82;3.45;;;;;;;14.50;34.40;100491.19;5112340;28;20050;-76
2023/04/05 04:05:15;;;;;;;4.70;2.80;;;;;;;14.49;34.55;100494.00;5112480;28;20143;-76
2023/04/05 04:07:44;;;;;;;5.82;3.28;;;;;;;14.48;34.35;100503.00;5112435;28;20044;-76
2023/04/05 04:10:17;;;;;;;5.63;2.88;;;;;;;14.47;34.38;100501.25;5112498;28;20040;-77
2023/04/05 04:12:45;;;;;;;5.03;3.13;;;;;;;14.45;34.48;100509.44;5111926;28;20036;-74
2023/04/05 04:15:15;;;;;;;5.18;2.95;;;;;;;14.44;34.57;100502.31;5112203;28;20051;-76
2023/04/05 04:17:44;;;;;;;6.10;3.25;;;;;;;14.41;34.45;100499.00;5112656;28;20075;-75
2023/04/05 04:20:13;;;;;;;6.40;3.05;;;;;;;14.42;34.52;100503.41;5112145;28;20043;-76
2023/04/05 04:22:44;;;;;;;6.10;3.00;;;;;;;14.39;34.35;100504.50;5111991;28;20035;-76
2023/04/05 04:25:15;;;;;;;5.60;3.35;;;;;;;14.38;34.45;100507.25;5112214;28;20044;-75
2023/04/05 04:27:45;;;;;;;6.95;3.15;;;;;;;14.37;34.45;100508.22;5111937;28;20102;-75
2023/04/05 04:30:15;;;;;;;6.35;3.00;;;;;;;14.35;34.48;100508.34;5112180;28;20044;-77
2023/04/05 04:32:53;;;;;;;5.30;3.00;;;;;;;14.33;34.38;100505.78;5112133;28;20043;-77
2023/04/05 04:35:24;;;;;;;4.68;2.78;;;;;;;14.32;34.53;100500.53;5102247;28;20054;-76
2023/04/05 04:37:56;;;;;;;6.63;3.00;;;;;;;14.32;34.30;100504.06;5091792;28;20101;-76
2023/04/05 04:40:28;;;;;;;5.00;2.95;;;;;;;14.34;34.75;100503.94;5091932;28;20048;-76
2023/04/05 04:42:57;;;;;;;5.15;2.70;;;;;;;14.35;34.95;100499.44;5091866;28;20466;-77
2023/04/05 04:45:27;;;;;;;5.60;2.90;;;;;;;14.42;35.05;100503.41;5091798;28;20052;-76
2023/04/05 04:47:55;;;;;;;4.85;2.83;;;;;;;14.50;35.14;100506.44;5091896;28;20048;-76
2023/04/05 04:50:23;;;;;;;4.95;2.90;;;;;;;14.54;35.10;100514.13;5091571;28;20475;-77
2023/04/05 04:52:51;;;;;;;5.47;2.83;;;;;;;14.62;34.92;100504.69;5091328;28;20044;-76
2023/04/05 04:55:24;;;;;;;4.45;2.50;;;;;;;14.69;34.88;100505.94;5091678;28;20124;-76
2023/04/05 04:57:52;;;;;;;5.10;2.67;;;;;;;14.76;34.79;100510.72;5091594;28;20048;-76
2023/04/05 05:00:21;;;;;;;5.78;2.92;;;;;;;14.85;34.80;100515.44;5091506;28;20339;-76
2023/04/05 05:02:52;;;;;;;5.18;2.80;;;;;;;14.95;34.73;100520.13;5093582;28;20048;-75
2023/04/05 05:05:21;;;;;;;5.05;3.00;;;;;;;15.04;34.73;100516.75;5095210;28;20048;-77
2023/04/05 05:07:51;;;;;;;5.22;2.70;;;;;;;15.13;34.60;100516.06;5094892;28;20052;-78
2023/04/05 05:10:20;;;;;;;5.40;2.60;;;;;;;15.20;34.55;100513.78;5095251;28;20044;-73
2023/04/05 05:12:50;;;;;;;5.00;2.58;;;;;;;15.28;34.53;100517.63;5094972;28;20131;-74
2023/04/05 05:15:20;;;;;;;4.63;2.70;;;;;;;15.36;34.53;100517.91;5094772;28;20047;-74
2023/04/05 05:17:51;;;;;;;4.75;2.67;;;;;;;15.42;34.41;100517.41;5076525;28;20113;-75
2023/04/05 05:20:22;;;;;;;5.05;2.88;;;;;;;15.48;34.28;100521.47;5077116;28;20060;-74
2023/04/05 05:22:50;;;;;;;5.80;2.83;;;;;;;15.51;34.26;100525.75;5094182;28;20485;-76
2023/04/05 05:25:18;;;;;;;4.32;2.65;;;;;;;15.53;34.30;100519.28;5094153;28;20050;-74
2023/04/05 05:27:49;;;;;;;5.47;2.55;;;;;;;15.56;34.29;100526.28;5094074;28;20128;-74
2023/04/05 05:30:19;;;;;;;4.82;2.70;;;;;;;15.63;34.43;100533.78;5094552;28;20040;-77
2023/04/05 05:32:47;;;;;;;4.78;2.60;;;;;;;15.70;34.30;100528.78;5094540;28;20044;-75
2023/04/05 05:35:16;;;;;;;4.88;2.88;;;;;;;15.80;34.34;100529.78;5094315;28;20048;-75
2023/04/05 05:37:45;;;;;;;4.55;2.70;;;;;;;15.88;34.15;100527.34;5094242;28;20428;-74
2023/04/05 05:40:15;;;;;;;5.28;2.83;;;;;;;15.94;34.04;100524.19;5093878;28;20493;-74
2023/04/05 05:42:43;;;;;;;4.68;2.47;;;;;;;15.98;34.05;100525.66;5093940;28;20048;-75
2023/04/05 05:45:11;;;;;;;5.03;3.00;;;;;;;16.02;33.97;100529.84;5094188;28;20139;-74
2023/04/05 05:47:40;;;;;;;5.55;3.08;;;;;;;16.03;33.91;100528.88;5094129;28;20047;-74
2023/04/05 05:50:09;;;;;;;5.40;2.95;;;;;;;16.05;33.91;100525.19;5093761;28;20076;-75
2023/04/05 05:52:38;;;;;;;5.88;3.33;;;;;;;16.02;34.04;100521.78;5075887;28;20044;-76
2023/04/05 05:55:09;;;;;;;5.88;3.05;;;;;;;16.02;33.85;100516.38;5093956;28;20047;-74
2023/04/05 05:57:37;;;;;;;5.03;2.88;;;;;;;16.04;33.82;100524.34;5093596;28;20616;-75
2023/04/05 06:00:09;;;;;;;4.47;2.70;;;;;;;16.03;33.73;100520.78;5093577;28;20130;-75
2023/04/05 06:02:39;;;;;;;5.25;2.92;;;;;;;16.02;33.78;100521.78;5093593;28;20489;-74
2023/04/05 06:05:08;;;;;;;5.47;3.10;;;;;;;15.99;33.84;100519.31;5093310;28;20067;-75
2023/04/05 06:07:37;;;;;;;4.72;2.78;;;;;;;15.98;33.78;100524.81;5093658;28;20137;-75
2023/04/05 06:10:09;;;;;;;5.18;3.17;;;;;;;15.96;33.71;100527.63;5093565;28;20077;-75
2023/04/05 06:12:37;;;;;;;5.38;3.08;;;;;;;15.94;33.75;100518.81;5093113;28;20044;-75
2023/04/05 06:15:06;;;;;;;5.00;3.00;;;;;;;15.91;33.82;100518.19;5093429;28;20048;-74
2023/04/05 06:17:40;;;;;;;5.45;3.10;;;;;;;15.88;33.66;100516.59;5093239;28;20051;-74
2023/04/05 06:20:10;;;;;;;5.03;2.97;;;;;;;15.86;33.94;100521.25;5093316;28;20123;-75
2023/04/05 06:22:40;;;;;;;5.05;2.90;;;;;;;15.84;33.86;100525.91;5093644;28;20051;-78
2023/04/05 06:25:11;;;;;;;5.38;3.03;;;;;;;15.83;33.93;100537.63;5093520;28;20044;-74
2023/04/05 06:27:40;;;;;;;5.00;2.72;;;;;;;15.81;34.02;100526.13;5095149;28;20056;-70
2023/04/05 06:30:09;;;;;;;4.53;2.75;;;;;;;15.78;34.05;100534.44;5092936;28;20044;-72
2023/04/05 06:32:38;;;;;;;5.20;2.97;;;;;;;15.73;33.96;100517.81;5092877;28;20576;-71
2023/04/05 06:35:07;;;;;;;4.55;2.80;;;;;;;15.72;33.92;100532.19;5092833;28;20064;-72
2023/04/05 06:37:35;;;;;;;5.60;3.10;;;;;;;15.70;33.91;100526.09;5092841;28;20047;-73
2023/04/05 06:40:04;;;;;;;5.93;3.03;;;;;;;15.67;33.73;100531.72;5092783;28;20083;-74
2023/04/05 06:42:34;;;;;;;5.03;2.80;;;;;;;15.64;33.88;100523.91;5092745;28;20127;-72
2023/04/05 06:45:03;;;;;;;5.70;3.17;;;;;;;15.61;33.83;100526.78;5092834;28;20489;-73
2023/04/05 06:47:35;;;;;;;5.93;2.80;;;;;;;15.61;33.87;100533.03;5092630;28;20423;-72
2023/04/05 06:50:03;;;;;;;4.22;2.75;;;;;;;15.59;33.87;100531.41;5092637;28;20086;-72
2023/04/05 06:52:33;;;;;;;6.28;2.90;;;;;;;15.57;34.00;100536.06;5092508;28;20097;-74
2023/04/05 06:55:01;;;;;;;4.53;2.72;;;;;;;15.52;33.89;100535.53;5092658;28;20040;-72
2023/04/05 06:57:29;;;;;;;5.03;2.65;;;;;;;15.50;33.91;100524.91;5092541;28;20097;-72
2023/04/05 07:00:06;;;;;;;4.53;2.70;;;;;;;15.50;33.87;100534.81;5092564;28;20048;-70
2023/04/05 07:02:36;;;;;;;5.28;2.70;;;;;;;15.45;33.94;100527.94;5092494;28;20101;-74
2023/04/05 07:05:05;;;;;;;4.82;2.53;;;;;;;15.44;33.83;100531.63;5092471;28;20040;-73
2023/04/05 07:07:33;;;;;;;5.05;2.63;;;;;;;15.43;33.74;100529.88;5092458;28;20044;-75
2023/04/05 07:10:01;;;;;;;4.25;2.80;;;;;;;15.41;33.93;100528.28;5092753;28;20412;-73
2023/04/05 07:12:30;;;;;;;5.43;2.50;;;;;;;15.39;33.90;100532.94;5092312;28;20048;-73
2023/04/05 07:15:00;;;;;;;4.93;2.92;;;;;;;15.37;33.93;100535.75;5091904;28;20428;-74
2023/04/05 07:17:28;;;;;;;4.60;2.45;;;;;;;15.34;34.02;100535.94;5090633;28;20040;-73
2023/04/05 07:19:56;;;;;;;5.30;2.70;;;;;;;15.32;33.89;100537.91;5092089;28;20131;-74
2023/04/05 07:22:25;;;;;;;5.15;2.70;;;;;;;15.31;33.90;100536.19;5090903;28;20458;-74
2023/04/05 07:24:54;;;;;;;5.07;2.70;;;;;;;15.30;33.84;100531.78;5091444;28;20056;-72
2023/04/05 07:27:22;;;;;;;4.88;2.67;;;;;;;15.29;33.91;100538.13;5091961;28;20125;-74
2023/04/05 07:29:50;;;;;;;4.45;2.60;;;;;;;15.26;33.97;100527.63;5092122;28;20048;-72
2023/04/05 07:32:20;;;;;;;4.93;2.60;;;;;;;15.28;33.91;100532.88;5074219;28;20048;-74
2023/04/05 07:34:48;;;;;;;4.93;2.53;;;;;;;15.31;34.52;100536.19;5092089;28;20447;-75
2023/04/05 07:37:16;;;;;;;5.07;2.85;;;;;;;15.33;34.38;100520.78;5091891;28;20071;-75
2023/04/05 07:39:45;;;;;;;4.85;2.70;;;;;;;15.44;34.23;100522.66;5091995;28;20067;-75
2023/04/05 07:42:13;;;;;;;5.05;2.25;;;;;;;15.50;34.42;100518.66;5091702;28;20044;-75
2023/04/05 07:44:42;;;;;;;4.15;2.65;;;;;;;15.58;34.26;100527.00;5091901;28;20044;-76
2023/04/05 07:47:11;;;;;;;4.07;2.28;;;;;;;15.63;34.24;100520.34;5091974;28;20090;-75
2023/04/05 07:49:40;;;;;;;5.38;2.70;;;;;;;15.73;34.27;100525.88;5091721;28;20040;-75
2023/04/05 07:52:09;;;;;;;4.75;2.50;;;;;;;15.81;34.32;100527.94;5074449;28;20089;-74
2023/04/05 07:54:38;;;;;;;4.07;2.30;;;;;;;15.88;34.13;100521.97;5092217;28;20052;-73
2023/04/05 07:57:07;;;;;;;5.13;2.50;;;;;;;15.96;34.06;100522.25;5091968;28;20044;-74
2023/04/05 07:59:36;;;;;;;5.95;2.83;;;;;;;16.06;34.18;100526.91;5091913;28;20058;-74
2023/04/05 08:02:05;;;;;;;5.07;2.55;;;;;;;16.14;34.08;100527.16;5091634;28;20056;-76
2023/04/05 08:04:43;;;;;;;4.72;2.67;;;;;;;16.20;33.97;100518.59;5091683;28;20086;-75
2023/04/05 08:07:11;;;;;;;4.25;2.47;;;;;;;16.26;33.85;100515.41;5091929;28;20118;-75
2023/04/05 08:09:40;;;;;;;4.80;2.80;;;;;;;16.30;33.78;100519.56;5092218;28;20405;-76
2023/04/05 08:12:10;;;;;;;4.65;2.60;;;;;;;16.30;33.75;100516.88;5092094;28;20040;-75
2023/04/05 08:14:38;;;;;;;5.68;2.47;;;;;;;16.33;33.76;100513.94;5091481;28;20445;-75
2023/04/05 08:17:06;;;;;;;4.45;2.67;;;;;;;16.35;33.82;100519.22;5091455;28;20120;-74
2023/04/05 08:19:34;;;;;;;5.13;2.75;;;;;;;16.35;33.73;100512.00;5091840;28;20076;-75
2023/04/05 08:22:04;;;;;;;4.35;2.40;;;;;;;16.34;33.67;100510.28;5091513;28;20063;-75
2023/04/05 08:24:32;;;;;;;3.88;2.42;;;;;;;16.35;33.65;100508.44;5091425;28;20048;-75
2023/04/05 08:27:01;;;;;;;4.22;2.40;;;;;;;16.34;33.76;100521.03;5091367;28;20459;-75
2023/04/05 08:29:29;;;;;;;4.75;2.35;;;;;;;16.34;33.74;100526.44;5091045;28;20058;-75
2023/04/05 08:31:58;;;;;;;4.55;2.40;;;;;;;16.33;33.73;100516.66;5091313;28;20070;-75
2023/04/05 08:34:26;;;;;;;5.75;2.53;;;;;;;16.31;33.79;100515.91;5091231;28;20052;-75
2023/04/05 08:36:58;;;;;;;4.63;2.38;;;;;;;16.31;33.75;100507.84;5093970;28;20044;-74
2023/04/05 08:39:28;;;;;;;4.33;2.40;;;;;;;16.29;33.72;100512.47;5095216;28;20040;-76
2023/04/05 08:42:04;;;;;;;5.07;2.45;;;;;;;16.26;33.86;100508.19;5094969;28;20052;-75
2023/04/05 08:44:36;;;;;;;4.53;2.42;;;;;;;16.27;33.80;100509.91;5095294;28;20051;-75
2023/04/05 08:47:05;;;;;;;4.75;2.50;;;;;;;16.21;33.87;100496.06;5095194;28;20099;-75
2023/04/05 08:49:33;;;;;;;4.75;2.70;;;;;;;16.24;33.77;100502.09;5095033;28;20384;-74
2023/04/05 08:52:03;;;;;;;5.15;2.45;;;;;;;16.23;33.80;100503.06;5094483;28;20048;-74
2023/04/05 08:54:32;;;;;;;4.13;2.40;;;;;;;16.20;33.76;100502.44;5094209;28;20060;-74
2023/04/05 08:57:04;;;;;;;4.15;2.17;;;;;;;16.20;33.65;100497.06;5094608;28;20099;-75
2023/04/05 08:59:34;;;;;;;5.63;2.80;;;;;;;16.19;33.84;100506.09;5094856;28;20089;-74
2023/04/05 09:02:08;;;;;;;4.20;2.35;;;;;;;16.18;33.52;100499.00;5094649;28;20135;-75
2023/04/05 09:04:43;;;;;;;3.95;2.30;;;;;;;16.16;33.94;100500.97;5094646;28;20048;-75
2023/04/05 09:07:14;;;;;;;4.68;2.40;;;;;;;16.14;33.65;100497.56;5094498;28;20044;-73
2023/04/05 09:09:47;;;;;;;4.00;2.28;;;;;;;16.13;33.72;100485.94;5094597;28;20079;-75
2023/04/05 09:12:15;;;;;;;4.20;2.30;;;;;;;16.11;33.58;100493.25;5094524;28;20044;-75
2023/04/05 09:14:44;;;;;;;4.10;2.50;;;;;;;16.10;33.94;100490.69;5094315;28;20477;-74
2023/04/05 09:17:13;;;;;;;4.05;2.42;;;;;;;16.10;33.74;100496.91;5094429;28;20178;-75
2023/04/05 09:19:42;;;;;;;5.10;2.38;;;;;;;16.08;33.80;100492.66;5094290;28;20048;-75
2023/04/05 09:22:12;;;;;;;3.92;2.30;;;;;;;16.06;33.68;100487.41;5093975;28;20139;-76
2023/04/05 09:24:42;;;;;;;4.13;2.22;;;;;;;16.06;33.67;100491.94;5094394;28;20044;-74
2023/04/05 09:27:12;;;;;;;3.97;2.30;;;;;;;16.05;33.74;100498.28;5094275;28;20048;-75
2023/04/05 09:29:42;;;;;;;4.65;2.33;;;;;;;16.03;33.76;100490.34;5093789;28;20492;-75
2023/04/05 09:32:12;;;;;;;3.95;2.13;;;;;;;16.04;33.88;100494.75;5094037;28;20052;-75
2023/04/05 09:34:41;;;;;;;4.60;2.20;;;;;;;16.02;33.84;100485.94;5094271;28;20048;-75
2023/04/05 09:37:14;;;;;;;4.13;2.30;;;;;;;16.01;33.89;100482.38;5094027;28;20091;-75
2023/04/05 09:39:45;;;;;;;5.03;2.60;;;;;;;16.01;33.94;100487.75;5094033;28;20044;-73
2023/04/05 09:42:16;;;;;;;3.47;2.03;;;;;;;16.00;34.06;100486.03;5093836;28;20048;-75
2023/04/05 09:44:52;;;;;;;4.90;2.58;;;;;;;15.99;33.98;100483.47;5093983;28;20106;-75
2023/04/05 09:47:23;;;;;;;3.85;2.10;;;;;;;15.98;34.14;100471.84;5093133;28;20048;-74
2023/04/05 09:49:52;;;;;;;3.78;2.20;;;;;;;15.98;34.06;100477.22;5093681;28;20547;-75
2023/04/05 09:52:21;;;;;;;4.18;2.42;;;;;;;15.98;34.07;100477.22;5093753;28;20063;-74
2023/04/05 09:54:52;;;;;;;4.82;2.67;;;;;;;15.98;34.09;100466.47;5093723;28;20052;-75
2023/04/05 09:57:26;;;;;;;4.40;2.58;;;;;;;15.99;34.10;100467.31;5093551;28;20055;-75
2023/04/05 09:59:55;;;;;;;4.07;2.50;;;;;;;15.99;34.08;100465.50;5093589;28;20173;-73
2023/04/05 10:02:23;;;;;;;3.92;2.35;;;;;;;16.00;34.04;100463.66;5093480;28;20048;-74
2023/04/05 10:04:53;;;;;;;4.35;2.20;;;;;;;16.00;34.30;100469.03;5093542;28;20588;-75
2023/04/05 10:07:21;;;;;;;4.78;2.60;;;;;;;16.02;34.21;100462.59;5093303;28;20048;-73
2023/04/05 10:09:50;;;;;;;4.22;2.35;;;;;;;16.03;34.32;100466.13;5093178;28;20048;-74
2023/04/05 10:12:25;;;;;;;3.80;2.00;;;;;;;16.02;34.11;100465.28;5093162;28;20109;-73
2023/04/05 10:14:54;;;;;;;5.10;2.30;;;;;;;16.06;34.21;100468.56;5093087;28;20047;-73
2023/04/05 10:17:25;;;;;;;4.07;2.28;;;;;;;16.06;34.06;100462.31;5093018;28;20105;-74
2023/04/05 10:20:07;;;;;;;4.97;2.30;;;;;;;16.10;34.03;100458.41;5093099;28;20046;-74
2023/04/05 10:22:59;;;;;;;3.70;2.15;;;;;;;16.07;34.08;100448.75;5093032;28;20079;-74
2023/04/05 10:25:49;;;;;;;4.60;2.33;;;;;;;16.15;34.22;100458.91;5092974;28;20059;-73
2023/04/05 10:28:29;;;;;;;4.38;2.35;;;;;;;16.16;34.20;100439.09;5092843;28;20051;-74
2023/04/05 10:31:04;;;;;;;4.57;2.40;;;;;;;16.18;34.17;100442.50;5092910;28;20055;-74
2023/04/05 10:33:39;;;;;;;3.63;2.28;;;;;;;16.22;34.25;100442.16;5092947;28;20105;-74
2023/04/05 10:36:16;;;;;;;3.97;2.10;;;;;;;16.25;34.47;100451.81;5092838;28;20412;-75
2023/04/05 10:38:55;;;;;;;3.92;2.20;;;;;;;16.27;34.53;100439.06;5092707;28;20497;-72
2023/04/05 10:41:33;;;;;;;5.28;2.42;;;;;;;16.31;34.39;100445.94;5092927;28;20048;-74
2023/04/05 10:44:05;;;;;;;3.42;1.92;;;;;;;16.35;34.38;100442.00;5092780;28;20082;-74
2023/04/05 10:46:46;;;;;;;3.78;2.17;;;;;;;16.38;34.41;100436.34;5092796;28;20052;-75
2023/04/05 10:49:25;;;;;;;4.10;2.40;;;;;;;16.42;34.59;100443.22;5092543;28;20039;-75
2023/04/05 10:51:54;;;;;;;3.80;2.20;;;;;;;16.45;34.44;100442.97;5092622;28;20084;-73
2023/04/05 10:54:23;;;;;;;4.18;2.35;;;;;;;16.48;34.44;100437.31;5092090;28;20052;-74
2023/04/05 10:56:52;;;;;;;3.40;2.17;;;;;;;16.51;34.36;100437.09;5092610;28;20143;-75
2023/04/05 10:59:23;;;;;;;4.65;2.47;;;;;;;16.55;34.32;100438.53;5092366;28;20048;-75
2023/04/05 11:01:52;;;;;;;3.47;2.13;;;;;;;16.56;34.36;100429.47;5092696;28;20381;-75
2023/04/05 11:04:20;;;;;;;3.60;2.35;;;;;;;16.62;34.52;100432.66;5092909;28;20135;-74
2023/04/05 11:07:12;;;;;;;4.53;2.10;;;;;;;16.67;34.43;100435.81;5093199;28;20072;-74
2023/04/05 11:09:51;;;;;;;3.35;2.10;;;;;;;16.70;34.41;100431.06;5092405;28;20048;-74
2023/04/05 11:12:19;;;;;;;3.90;2.10;;;;;;;16.75;34.46;100430.69;5092289;28;20050;-74
2023/04/05 11:14:49;;;;;;;3.33;2.13;;;;;;;16.77;34.45;100426.88;5092090;28;20051;-73
2023/04/05 11:17:25;;;;;;;4.13;2.50;;;;;;;16.82;34.23;100423.81;5092192;28;20530;-74
2023/04/05 11:20:03;;;;;;;3.53;2.05;;;;;;;16.85;34.16;100423.53;5091952;28;20127;-73
2023/04/05 11:22:31;;;;;;;3.08;1.83;;;;;;;16.90;34.21;100432.09;5092291;28;20072;-74
2023/04/05 11:25:03;;;;;;;4.13;2.47;;;;;;;16.95;34.18;100426.31;5091955;28;20131;-74
2023/04/05 11:27:32;;;;;;;3.90;2.20;;;;;;;16.99;34.14;100435.88;5092220;28;20044;-75
2023/04/05 11:30:04;;;;;;;4.20;2.30;;;;;;;17.02;34.18;100424.81;5091998;28;20127;-75
2023/04/05 11:32:39;;;;;;;3.28;1.98;;;;;;;17.07;34.25;100422.56;5091976;28;20047;-76
2023/04/05 11:35:13;;;;;;;4.20;2.10;;;;;;;17.11;34.21;100424.06;5091853;28;20485;-74
2023/04/05 11:38:05;;;;;;;4.32;2.38;;;;;;;17.15;34.33;100415.56;5091825;28;20564;-74
2023/04/05 11:40:36;;;;;;;3.47;2.05;;;;;;;17.22;34.15;100420.44;5092168;28;20048;-74